createdAt,value
2018-05-01T00:00:10.462Z,1.20
2018-05-01T00:02:41.334Z,1.10
2018-05-01T00:05:12.124Z,1.10
2018-05-01T00:07:42.959Z,1.17
2018-05-01T00:10:13.749Z,1.10
2018-05-01T00:12:44.548Z,1.10
2018-05-01T00:15:15.328Z,1.23
2018-05-01T00:17:46.207Z,1.40
2018-05-01T00:20:17.052Z,1.40
2018-05-01T00:22:47.868Z,1.43
2018-05-01T00:25:18.659Z,1.33
2018-05-01T00:27:49.488Z,1.37
2018-05-01T00:30:20.291Z,1.97
2018-05-01T00:32:52.359Z,1.47
2018-05-01T00:35:23.156Z,1.87
2018-05-01T00:37:53.952Z,1.20
2018-05-01T00:40:24.724Z,1.00
2018-05-01T00:42:55.533Z,1.50
2018-05-01T00:45:26.296Z,1.17
2018-05-01T00:47:57.088Z,0.83
2018-05-01T00:50:27.875Z,1.10
2018-05-01T00:52:58.659Z,0.93
2018-05-01T00:55:29.441Z,0.90
2018-05-01T00:58:00.229Z,0.90
2018-05-01T01:00:31.007Z,1.40
2018-05-01T01:03:01.805Z,1.43
2018-05-01T01:05:32.608Z,1.40
2018-05-01T01:08:03.428Z,1.20
2018-05-01T01:10:34.225Z,1.50
2018-05-01T01:13:05.088Z,1.70
2018-05-01T01:15:35.987Z,1.30
2018-05-01T01:18:06.805Z,1.33
2018-05-01T01:20:37.601Z,1.47
2018-05-01T01:23:08.410Z,1.20
2018-05-01T01:25:39.214Z,1.30
2018-05-01T01:28:09.992Z,1.40
2018-05-01T01:30:40.776Z,1.50
2018-05-01T01:33:11.605Z,1.40
2018-05-01T01:35:42.262Z,1.80
2018-05-01T01:38:12.907Z,1.50
2018-05-01T01:40:43.561Z,1.70
2018-05-01T01:43:14.234Z,1.70
2018-05-01T01:45:44.932Z,1.77
2018-05-01T01:48:15.592Z,1.73
2018-05-01T01:50:46.228Z,1.70
2018-05-01T01:53:16.908Z,1.90
2018-05-01T01:55:47.535Z,1.90
2018-05-01T01:58:18.192Z,1.97
2018-05-01T02:00:48.836Z,1.70
2018-05-01T02:03:19.492Z,1.80
2018-05-01T02:05:50.195Z,1.73
2018-05-01T02:08:20.843Z,1.90
2018-05-01T02:10:51.472Z,1.87
2018-05-01T02:13:22.148Z,2.30
2018-05-01T02:15:52.787Z,1.83
2018-05-01T02:18:23.450Z,1.90
2018-05-01T02:20:54.081Z,2.40
2018-05-01T02:23:24.748Z,1.90
2018-05-01T02:25:55.385Z,2.03
2018-05-01T02:28:26.036Z,1.77
2018-05-01T02:30:56.691Z,2.27
2018-05-01T02:33:27.345Z,1.63
2018-05-01T02:35:58.018Z,1.93
2018-05-01T02:38:28.684Z,2.03
2018-05-01T02:40:59.337Z,2.00
2018-05-01T02:43:30.017Z,2.07
2018-05-01T02:46:00.636Z,2.70
2018-05-01T02:48:31.291Z,1.80
2018-05-01T02:51:01.932Z,1.93
2018-05-01T02:53:32.603Z,2.20
2018-05-01T02:56:03.232Z,2.10
2018-05-01T02:58:34.901Z,2.30
2018-05-01T03:01:05.546Z,1.98
2018-05-01T03:03:36.216Z,2.37
2018-05-01T03:06:06.941Z,2.33
2018-05-01T03:08:37.520Z,2.50
2018-05-01T03:11:08.168Z,2.17
2018-05-01T03:13:38.826Z,2.47
2018-05-01T03:16:09.484Z,2.33
2018-05-01T03:18:40.172Z,2.60
2018-05-01T03:21:10.837Z,2.60
2018-05-01T03:23:41.486Z,2.33
2018-05-01T03:26:12.111Z,2.30
2018-05-01T03:28:42.753Z,2.10
2018-05-01T03:31:13.383Z,2.00
2018-05-01T03:33:44.051Z,2.40
2018-05-01T03:36:14.685Z,2.00
2018-05-01T03:38:45.340Z,2.70
2018-05-01T03:41:15.978Z,2.60
2018-05-01T03:43:46.647Z,2.30
2018-05-01T03:46:17.315Z,2.60
2018-05-01T03:48:48.040Z,2.20
2018-05-01T03:51:18.709Z,2.40
2018-05-01T03:53:49.354Z,2.53
2018-05-01T03:56:19.980Z,2.60
2018-05-01T03:58:50.637Z,2.80
2018-05-01T04:01:21.300Z,2.57
2018-05-01T04:03:51.964Z,2.37
2018-05-01T04:06:22.596Z,2.27
2018-05-01T04:08:53.251Z,2.67
2018-05-01T04:11:23.897Z,2.33
2018-05-01T04:13:54.562Z,2.03
2018-05-01T04:16:25.183Z,2.30
2018-05-01T04:18:55.844Z,2.40
2018-05-01T04:21:26.507Z,2.07
2018-05-01T04:23:57.182Z,2.27
2018-05-01T04:26:27.803Z,2.47
2018-05-01T04:28:58.431Z,1.93
2018-05-01T04:31:29.067Z,1.73
2018-05-01T04:33:59.729Z,1.93
2018-05-01T04:36:30.368Z,1.90
2018-05-01T04:39:01.031Z,2.30
2018-05-01T04:41:31.671Z,2.00
2018-05-01T04:44:02.364Z,1.63
2018-05-01T04:46:32.992Z,2.37
2018-05-01T04:49:06.559Z,2.00
2018-05-01T04:51:37.252Z,1.87
2018-05-01T04:54:07.892Z,1.57
2018-05-01T04:56:38.533Z,1.60
2018-05-01T04:59:09.190Z,1.80
2018-05-01T05:01:39.817Z,2.40
2018-05-01T05:04:10.498Z,2.07
2018-05-01T05:06:41.139Z,2.10
2018-05-01T05:09:11.800Z,1.87
2018-05-01T05:11:42.432Z,1.77
2018-05-01T05:14:13.075Z,2.00
2018-05-01T05:16:43.722Z,1.50
2018-05-01T05:19:14.376Z,1.90
2018-05-01T05:21:45.019Z,1.80
2018-05-01T05:24:15.691Z,1.60
2018-05-01T05:26:46.340Z,2.00
2018-05-01T05:29:17.012Z,1.60
2018-05-01T05:31:47.652Z,1.73
2018-05-01T05:34:19.096Z,2.00
2018-05-01T05:36:49.739Z,1.80
2018-05-01T05:39:20.421Z,1.80
2018-05-01T05:41:51.065Z,1.50
2018-05-01T05:44:21.755Z,1.67
2018-05-01T05:46:52.392Z,1.40
2018-05-01T05:49:23.075Z,1.53
2018-05-01T05:51:53.711Z,1.90
2018-05-01T05:54:24.442Z,1.60
2018-05-01T05:56:55.052Z,1.60
2018-05-01T05:59:25.745Z,1.20
2018-05-01T06:01:56.383Z,1.10
2018-05-01T06:04:27.068Z,1.53
2018-05-01T06:06:58.543Z,1.77
2018-05-01T06:09:29.253Z,1.40
2018-05-01T06:11:59.931Z,1.30
2018-05-01T06:14:30.586Z,1.50
2018-05-01T06:17:01.219Z,1.20
2018-05-01T06:19:31.879Z,1.17
2018-05-01T06:22:02.634Z,1.30
2018-05-01T06:24:33.200Z,1.10
2018-05-01T06:27:03.876Z,1.60
2018-05-01T06:29:34.535Z,1.70
2018-05-01T06:32:05.217Z,1.13
2018-05-01T06:34:35.893Z,1.33
2018-05-01T06:37:06.548Z,1.10
2018-05-01T06:39:37.183Z,0.90
2018-05-01T06:42:07.825Z,1.20
2018-05-01T06:44:38.507Z,1.10
2018-05-01T06:47:09.140Z,0.90
2018-05-01T06:49:39.788Z,0.90
2018-05-01T06:52:10.443Z,1.00
2018-05-01T06:54:41.104Z,1.20
2018-05-01T06:57:11.740Z,0.90
2018-05-01T06:59:42.403Z,1.10
2018-05-01T07:02:13.069Z,0.73
2018-05-01T07:04:43.719Z,1.00
2018-05-01T07:07:14.394Z,1.13
2018-05-01T07:09:45.048Z,0.90
2018-05-01T07:12:15.676Z,0.80
2018-05-01T07:14:46.333Z,0.80
2018-05-01T07:17:17.036Z,1.17
2018-05-01T07:19:47.733Z,0.90
2018-05-01T07:22:19.845Z,1.03
2018-05-01T07:24:50.531Z,0.93
2018-05-01T07:27:21.156Z,0.97
2018-05-01T07:29:51.870Z,0.97
2018-05-01T07:32:22.504Z,0.80
2018-05-01T07:34:53.149Z,0.90
2018-05-01T07:37:23.812Z,1.10
2018-05-01T07:39:54.473Z,1.27
2018-05-01T07:42:25.115Z,0.90
2018-05-01T07:44:55.765Z,1.20
2018-05-01T07:47:26.966Z,0.73
2018-05-01T07:49:57.623Z,1.10
2018-05-01T07:52:28.268Z,0.80
2018-05-01T07:54:58.947Z,1.20
2018-05-01T07:57:29.579Z,0.97
2018-05-01T08:00:00.238Z,1.03
2018-05-01T08:02:30.876Z,1.00
2018-05-01T08:05:01.568Z,0.80
2018-05-01T08:07:32.219Z,0.90
2018-05-01T08:10:02.897Z,0.90
2018-05-01T08:12:33.543Z,1.07
2018-05-01T08:15:04.223Z,1.00
2018-05-01T08:17:34.843Z,1.07
2018-05-01T08:20:05.507Z,1.00
2018-05-01T08:22:36.175Z,0.90
2018-05-01T08:25:06.863Z,1.20
2018-05-01T08:27:37.515Z,0.93
2018-05-01T08:30:08.164Z,0.90
2018-05-01T08:32:38.798Z,0.90
2018-05-01T08:35:09.459Z,1.10
2018-05-01T08:37:40.212Z,1.00
2018-05-01T08:40:10.871Z,1.20
2018-05-01T08:42:41.419Z,0.90
2018-05-01T08:45:12.090Z,1.10
2018-05-01T08:47:42.775Z,1.00
2018-05-01T08:50:13.433Z,1.37
2018-05-01T08:52:44.081Z,1.07
2018-05-01T08:55:14.719Z,0.90
2018-05-01T08:57:45.375Z,1.20
2018-05-01T09:00:16.082Z,1.00
2018-05-01T09:02:46.728Z,0.97
2018-05-01T09:05:18.084Z,1.23
2018-05-01T09:07:48.744Z,1.37
2018-05-01T09:10:19.420Z,0.97
2018-05-01T09:12:50.064Z,1.00
2018-05-01T09:15:20.742Z,0.87
2018-05-01T09:17:51.483Z,1.00
2018-05-01T09:20:22.090Z,1.00
2018-05-01T09:22:52.819Z,1.03
2018-05-01T09:25:23.497Z,1.10
2018-05-01T09:27:54.120Z,1.00
2018-05-01T09:30:24.778Z,1.03
2018-05-01T09:32:55.399Z,1.30
2018-05-01T09:35:26.240Z,1.27
2018-05-01T09:37:56.879Z,1.10
2018-05-01T09:40:27.540Z,1.10
2018-05-01T09:42:58.195Z,1.23
2018-05-01T09:45:28.860Z,1.40
2018-05-01T09:47:59.504Z,1.10
2018-05-01T09:50:30.151Z,1.20
2018-05-01T09:53:00.939Z,1.27
2018-05-01T09:55:31.831Z,1.10
2018-05-01T09:58:02.676Z,1.20
2018-05-01T10:00:33.460Z,1.30
2018-05-01T10:03:04.243Z,1.20
2018-05-01T10:05:35.052Z,1.10
2018-05-01T10:08:05.818Z,1.50
2018-05-01T10:10:36.708Z,1.20
2018-05-01T10:13:07.486Z,1.20
2018-05-01T10:15:38.291Z,1.33
2018-05-01T10:18:09.060Z,1.37
2018-05-01T10:20:39.861Z,1.30
2018-05-01T10:23:10.623Z,1.13
2018-05-01T10:25:41.435Z,1.47
2018-05-01T10:28:12.220Z,1.10
2018-05-01T10:30:43.000Z,1.37
2018-05-01T10:33:13.875Z,1.10
2018-05-01T10:35:44.696Z,1.20
2018-05-01T10:38:15.476Z,1.10
2018-05-01T10:40:46.280Z,1.40
2018-05-01T10:43:17.069Z,1.17
2018-05-01T10:45:47.949Z,1.03
2018-05-01T10:48:19.310Z,1.30
2018-05-01T10:50:50.111Z,1.43
2018-05-01T10:53:20.886Z,1.40
2018-05-01T10:55:51.684Z,1.00
2018-05-01T10:58:22.464Z,1.10
2018-05-01T11:00:53.251Z,1.17
2018-05-01T11:03:24.018Z,1.33
2018-05-01T11:05:54.862Z,1.30
2018-05-01T11:08:25.837Z,1.63
2018-05-01T11:10:56.600Z,1.17
2018-05-01T11:13:27.445Z,1.50
2018-05-01T11:15:58.252Z,1.30
2018-05-01T11:18:29.071Z,1.00
2018-05-01T11:20:59.845Z,1.50
2018-05-01T11:23:30.606Z,1.40
2018-05-01T11:26:01.407Z,1.33
2018-05-01T11:28:32.249Z,1.37
2018-05-01T11:31:02.949Z,1.20
2018-05-01T11:33:33.737Z,1.37
2018-05-01T11:36:04.496Z,1.20
2018-05-01T11:38:35.286Z,1.00
2018-05-01T11:41:06.067Z,1.30
2018-05-01T11:43:36.864Z,1.00
2018-05-01T11:46:07.664Z,1.30
2018-05-01T11:48:38.432Z,1.10
2018-05-01T11:51:09.301Z,1.37
2018-05-01T11:53:40.140Z,1.70
2018-05-01T11:56:10.897Z,1.10
2018-05-01T11:58:41.675Z,1.37
2018-05-01T12:01:12.794Z,1.50
2018-05-01T12:03:43.584Z,1.17
2018-05-01T12:06:14.372Z,1.30
2018-05-01T12:08:45.171Z,1.70
2018-05-01T12:11:15.972Z,1.53
2018-05-01T12:13:46.743Z,1.60
2018-05-01T12:16:17.551Z,1.30
2018-05-01T12:18:48.318Z,1.40
2018-05-01T12:21:19.109Z,1.30
2018-05-01T12:23:49.939Z,1.10
2018-05-01T12:26:20.744Z,1.40
2018-05-01T12:28:51.531Z,1.10
2018-05-01T12:31:22.339Z,1.20
2018-05-01T12:33:53.098Z,1.60
2018-05-01T12:36:23.943Z,1.67
2018-05-01T12:38:54.660Z,1.27
2018-05-01T12:41:25.452Z,1.37
2018-05-01T12:43:56.243Z,1.30
2018-05-01T12:46:27.041Z,1.00
2018-05-01T12:48:57.799Z,1.30
2018-05-01T12:51:28.770Z,1.20
2018-05-01T12:53:59.574Z,1.30
2018-05-01T12:56:30.371Z,1.20
2018-05-01T12:59:01.231Z,1.10
2018-05-01T13:01:32.060Z,1.17
2018-05-01T13:04:02.840Z,1.83
2018-05-01T13:06:33.629Z,1.03
2018-05-01T13:09:04.472Z,1.30
2018-05-01T13:11:35.260Z,1.30
2018-05-01T13:14:06.016Z,1.13
2018-05-01T13:16:36.807Z,1.57
2018-05-01T13:19:07.577Z,1.10
2018-05-01T13:21:38.351Z,1.20
2018-05-01T13:24:09.143Z,1.07
2018-05-01T13:26:39.956Z,1.10
2018-05-01T13:29:10.727Z,1.10
2018-05-01T13:31:41.559Z,2.70
2018-05-01T13:34:12.327Z,1.20
2018-05-01T13:36:43.116Z,1.10
2018-05-01T13:39:13.911Z,1.40
2018-05-01T13:41:44.738Z,1.30
2018-05-01T13:44:15.495Z,1.13
2018-05-01T13:46:46.292Z,1.30
2018-05-01T13:49:18.084Z,1.10
2018-05-01T13:51:48.893Z,1.30
2018-05-01T13:54:19.709Z,1.27
2018-05-01T13:56:51.861Z,1.03
2018-05-01T13:59:22.652Z,1.10
2018-05-01T14:01:53.458Z,1.03
2018-05-01T14:04:24.258Z,1.10
2018-05-01T14:06:55.042Z,1.07
2018-05-01T14:09:25.799Z,1.00
2018-05-01T14:11:56.586Z,1.10
2018-05-01T14:14:27.351Z,0.97
2018-05-01T14:16:58.147Z,1.20
2018-05-01T14:19:28.949Z,1.40
2018-05-01T14:21:59.740Z,0.87
2018-05-01T14:24:30.503Z,1.10
2018-05-01T14:27:01.300Z,1.60
2018-05-01T14:29:32.108Z,1.50
2018-05-01T14:32:02.880Z,1.30
2018-05-01T14:34:33.635Z,1.10
2018-05-01T14:37:04.442Z,1.03
2018-05-01T14:39:35.217Z,1.10
2018-05-01T14:42:13.112Z,0.93
2018-05-01T14:44:43.892Z,1.10
2018-05-01T14:47:14.705Z,1.00
2018-05-01T14:49:45.721Z,0.90
2018-05-01T14:52:16.647Z,1.23
2018-05-01T14:54:47.641Z,1.50
2018-05-01T14:57:18.652Z,0.93
2018-05-01T14:59:49.481Z,1.10
2018-05-01T15:02:20.303Z,1.20
2018-05-01T15:04:51.133Z,1.47
2018-05-01T15:07:21.915Z,1.33
2018-05-01T15:09:53.633Z,0.93
2018-05-01T15:12:25.108Z,1.33
2018-05-01T15:14:55.896Z,1.60
2018-05-01T15:17:26.738Z,1.17
2018-05-01T15:19:57.511Z,1.23
2018-05-01T15:22:28.301Z,1.30
2018-05-01T15:24:59.081Z,1.20
2018-05-01T15:27:29.914Z,1.03
2018-05-01T15:30:00.719Z,1.30
2018-05-01T15:32:31.480Z,1.57
2018-05-01T15:35:02.256Z,1.00
2018-05-01T15:37:33.071Z,1.30
2018-05-01T15:40:03.913Z,1.10
2018-05-01T15:42:35.713Z,1.37
2018-05-01T15:45:06.582Z,1.00
2018-05-01T15:47:37.344Z,1.00
2018-05-01T15:50:08.115Z,1.00
2018-05-01T15:52:38.925Z,1.20
2018-05-01T15:55:09.707Z,0.90
2018-05-01T15:57:40.488Z,1.10
2018-05-01T16:00:11.269Z,1.30
2018-05-01T16:02:42.072Z,1.10
2018-05-01T16:05:12.879Z,1.10
2018-05-01T16:07:43.672Z,1.40
2018-05-01T16:10:14.446Z,1.10
2018-05-01T16:12:45.239Z,1.57
2018-05-01T16:15:16.024Z,1.10
2018-05-01T16:17:46.841Z,1.20
2018-05-01T16:20:17.640Z,1.17
2018-05-01T16:22:48.436Z,1.23
2018-05-01T16:25:19.203Z,1.20
2018-05-01T16:27:49.991Z,1.30
2018-05-01T16:30:20.747Z,1.00
2018-05-01T16:32:51.565Z,1.23
2018-05-01T16:35:22.338Z,1.40
2018-05-01T16:37:53.127Z,1.30
2018-05-01T16:40:23.899Z,1.30
2018-05-01T16:42:54.700Z,1.20
2018-05-01T16:45:25.460Z,1.40
2018-05-01T16:47:56.232Z,1.00
2018-05-01T16:50:27.023Z,1.20
2018-05-01T16:52:57.828Z,1.10
2018-05-01T16:55:28.593Z,1.20
2018-05-01T16:57:59.379Z,1.20
2018-05-01T17:00:30.603Z,1.40
2018-05-01T17:03:01.673Z,1.27
2018-05-01T17:05:32.659Z,1.20
2018-05-01T17:08:03.484Z,1.00
2018-05-01T17:10:34.248Z,1.07
2018-05-01T17:13:05.064Z,1.10
2018-05-01T17:15:36.008Z,1.10
2018-05-01T17:18:06.782Z,1.47
2018-05-01T17:20:37.555Z,1.00
2018-05-01T17:23:08.357Z,1.37
2018-05-01T17:25:39.161Z,1.37
2018-05-01T17:28:10.046Z,1.17
2018-05-01T17:30:40.814Z,1.17
2018-05-01T17:33:11.628Z,1.00
2018-05-01T17:35:42.410Z,1.00
2018-05-01T17:38:13.175Z,1.10
2018-05-01T17:40:44.030Z,1.03
2018-05-01T17:43:14.818Z,1.00
2018-05-01T17:45:45.619Z,1.00
2018-05-01T17:48:16.416Z,1.10
2018-05-01T17:50:47.195Z,0.90
2018-05-01T17:53:17.997Z,1.50
2018-05-01T17:55:48.802Z,1.00
2018-05-01T17:58:19.596Z,1.50
2018-05-01T18:00:50.911Z,1.40
2018-05-01T18:03:21.761Z,1.23
2018-05-01T18:05:52.616Z,0.90
2018-05-01T18:08:23.499Z,1.10
2018-05-01T18:10:54.641Z,1.30
2018-05-01T18:13:25.494Z,1.60
2018-05-01T18:15:56.287Z,1.03
2018-05-01T18:18:27.085Z,1.40
2018-05-01T18:20:57.920Z,1.30
2018-05-01T18:23:28.713Z,1.23
2018-05-01T18:25:59.513Z,0.90
2018-05-01T18:28:30.327Z,1.13
2018-05-01T18:31:01.112Z,1.00
2018-05-01T18:33:31.924Z,1.80
2018-05-01T18:36:02.691Z,1.03
2018-05-01T18:38:33.468Z,0.93
2018-05-01T18:41:04.272Z,1.10
2018-05-01T18:43:36.297Z,0.80
2018-05-01T18:46:07.072Z,1.03
2018-05-01T18:48:37.839Z,1.10
2018-05-01T18:51:09.568Z,1.20
2018-05-01T18:53:40.385Z,1.20
2018-05-01T18:56:11.232Z,1.10
2018-05-01T18:58:42.075Z,1.37
2018-05-01T19:01:12.876Z,1.00
2018-05-01T19:03:43.692Z,1.10
2018-05-01T19:06:14.507Z,1.10
2018-05-01T19:08:45.307Z,1.00
2018-05-01T19:11:16.127Z,1.03
2018-05-01T19:13:47.006Z,1.07
2018-05-01T19:16:17.833Z,0.90
2018-05-01T19:18:48.617Z,1.00
2018-05-01T19:21:19.491Z,0.93
2018-05-01T19:23:50.219Z,1.30
2018-05-01T19:26:21.015Z,0.90
2018-05-01T19:28:51.838Z,0.93
2018-05-01T19:31:22.663Z,0.90
2018-05-01T19:33:53.473Z,0.97
2018-05-01T19:36:24.269Z,0.80
2018-05-01T19:38:55.107Z,1.00
2018-05-01T19:41:25.905Z,1.30
2018-05-01T19:43:56.727Z,0.90
2018-05-01T19:46:28.332Z,1.20
2018-05-01T19:48:59.169Z,1.52
2018-05-01T19:51:29.953Z,1.10
2018-05-01T19:54:00.760Z,1.10
2018-05-01T19:56:31.617Z,1.07
2018-05-01T19:59:02.373Z,1.03
2018-05-01T20:01:33.183Z,1.20
2018-05-01T20:04:03.957Z,1.40
2018-05-01T20:06:34.780Z,0.90
2018-05-01T20:09:05.580Z,1.20
2018-05-01T20:11:36.417Z,1.17
2018-05-01T20:14:07.213Z,1.20
2018-05-01T20:16:37.983Z,1.10
2018-05-01T20:19:08.832Z,1.30
2018-05-01T20:21:39.619Z,1.27
2018-05-01T20:24:10.433Z,1.30
2018-05-01T20:26:41.246Z,1.53
2018-05-01T20:29:12.033Z,1.30
2018-05-01T20:31:42.848Z,1.50
2018-05-01T20:34:13.757Z,1.87
2018-05-01T20:36:46.694Z,1.53
2018-05-01T20:39:17.523Z,1.20
2018-05-01T20:41:48.287Z,1.30
2018-05-01T20:44:19.195Z,1.17
2018-05-01T20:46:49.912Z,1.43
2018-05-01T20:49:20.701Z,1.10
2018-05-01T20:51:51.494Z,1.37
2018-05-01T20:54:22.308Z,1.40
2018-05-01T20:56:53.075Z,1.27
2018-05-01T20:59:23.912Z,1.50
2018-05-01T21:01:54.672Z,2.00
2018-05-01T21:04:27.125Z,1.73
2018-05-01T21:06:57.905Z,1.50
2018-05-01T21:09:28.676Z,1.60
2018-05-01T21:11:59.479Z,1.40
2018-05-01T21:14:30.247Z,1.40
2018-05-01T21:17:01.035Z,1.10
2018-05-01T21:19:31.843Z,1.47
2018-05-01T21:22:02.637Z,1.30
2018-05-01T21:24:33.409Z,1.23
2018-05-01T21:27:04.183Z,1.43
2018-05-01T21:29:34.975Z,1.40
2018-05-01T21:32:05.724Z,1.63
2018-05-01T21:34:36.507Z,1.43
2018-05-01T21:37:07.264Z,1.40
2018-05-01T21:39:38.044Z,1.30
2018-05-01T21:42:08.810Z,1.60
2018-05-01T21:44:39.616Z,1.60
2018-05-01T21:47:10.417Z,1.00
2018-05-01T21:49:41.203Z,1.63
2018-05-01T21:52:11.956Z,1.50
2018-05-01T21:54:43.291Z,1.53
2018-05-01T21:57:14.081Z,1.90
2018-05-01T22:02:41.600Z,1.60
2018-05-01T22:05:12.385Z,1.50
2018-05-01T22:07:43.155Z,1.73
2018-05-01T22:10:13.984Z,1.50
2018-05-01T22:12:44.740Z,1.70
2018-05-01T22:18:01.484Z,1.60
2018-05-01T22:20:32.293Z,1.67
2018-05-01T22:23:03.056Z,1.30
2018-05-01T22:25:33.861Z,1.40
2018-05-01T22:28:04.643Z,1.50
2018-05-01T22:30:35.440Z,1.50
2018-05-01T22:33:06.207Z,1.70
2018-05-01T22:35:37.018Z,1.50
2018-05-01T22:38:07.788Z,1.13
2018-05-01T22:40:38.633Z,1.40
2018-05-01T22:43:09.367Z,1.10
2018-05-01T22:45:40.168Z,1.50
2018-05-01T22:48:10.957Z,1.10
2018-05-01T22:50:41.732Z,1.10
2018-05-01T22:53:12.523Z,1.20
2018-05-01T22:55:43.309Z,1.07
2018-05-01T22:58:14.095Z,1.40
2018-05-01T23:00:44.940Z,1.53
2018-05-01T23:03:15.661Z,1.33
2018-05-01T23:05:46.475Z,1.00
2018-05-01T23:08:17.285Z,1.20
2018-05-01T23:10:48.070Z,1.83
2018-05-01T23:13:18.742Z,1.50
2018-05-01T23:15:49.515Z,1.20
2018-05-01T23:18:20.270Z,1.20
2018-05-01T23:20:51.090Z,1.50
2018-05-01T23:23:21.899Z,1.43
2018-05-01T23:25:52.679Z,1.10
2018-05-01T23:28:23.455Z,1.20
2018-05-01T23:30:54.303Z,1.50
2018-05-01T23:33:25.079Z,1.10
2018-05-01T23:35:55.867Z,1.20
2018-05-01T23:38:26.534Z,1.10
2018-05-01T23:40:57.316Z,1.30
2018-05-01T23:43:28.101Z,1.30
2018-05-01T23:45:58.894Z,1.23
2018-05-01T23:48:29.655Z,1.27
2018-05-01T23:51:00.444Z,1.30
2018-05-01T23:53:31.221Z,1.20
2018-05-01T23:56:04.951Z,1.40
2018-05-01T23:58:35.735Z,1.20
